createdAt,value
2023-05-21T00:01:50.190Z,101145.84
2023-05-21T00:04:18.232Z,101140.69
2023-05-21T00:06:47.502Z,101139.91
2023-05-21T00:09:15.911Z,101143.47
2023-05-21T00:11:43.832Z,101140.09
2023-05-21T00:14:11.808Z,101139.31
2023-05-21T00:16:39.912Z,101135.94
2023-05-21T00:19:08.297Z,101135.13
2023-05-21T00:21:36.401Z,101142.13
2023-05-21T00:24:06.328Z,101136.13
2023-05-21T00:26:34.307Z,101137.94
2023-05-21T00:29:02.252Z,101142.28
2023-05-21T00:31:30.335Z,101139.72
2023-05-21T00:33:59.408Z,101145.88
2023-05-21T00:36:27.730Z,101145.91
2023-05-21T00:38:58.615Z,101147.72
2023-05-21T00:41:30.310Z,101143.47
2023-05-21T00:44:00.423Z,101146.09
2023-05-21T00:46:29.609Z,101150.47
2023-05-21T00:48:58.143Z,101145.34
2023-05-21T00:51:30.366Z,101144.53
2023-05-21T00:53:59.003Z,101145.38
2023-05-21T00:56:31.430Z,101147.09
2023-05-21T00:58:59.773Z,101150.59
2023-05-21T01:01:27.804Z,101144.53
2023-05-21T01:03:57.902Z,101146.25
2023-05-21T01:06:25.888Z,101154.94
2023-05-21T01:08:54.025Z,101146.25
2023-05-21T01:11:23.157Z,101143.63
2023-05-21T01:13:52.584Z,101146.28
2023-05-21T01:16:21.516Z,101147.19
2023-05-21T01:18:50.428Z,101137.72
2023-05-21T01:21:21.718Z,101143.81
2023-05-21T01:23:51.021Z,101139.56
2023-05-21T01:26:18.884Z,101143.88
2023-05-21T01:28:48.185Z,101140.44
2023-05-21T01:31:32.445Z,101134.44
2023-05-21T01:34:05.057Z,101135.28
2023-05-21T01:36:40.959Z,101131.84
2023-05-21T01:39:17.746Z,101136.16
2023-05-21T01:41:48.744Z,101136.22
2023-05-21T01:44:19.987Z,101134.53
2023-05-21T01:46:48.023Z,101135.41
2023-05-21T01:49:17.709Z,101130.25
2023-05-21T01:51:46.036Z,101140.72
2023-05-21T01:54:15.856Z,101126.03
2023-05-21T01:56:43.800Z,101133.06
2023-05-21T01:59:11.778Z,101133.09
2023-05-21T02:01:40.024Z,101133.97
2023-05-21T02:04:08.093Z,101133.09
2023-05-21T02:06:39.567Z,101130.59
2023-05-21T02:09:08.202Z,101125.41
2023-05-21T02:11:37.609Z,101133.22
2023-05-21T02:14:05.617Z,101132.38
2023-05-21T02:16:33.681Z,101123.69
2023-05-21T02:19:01.809Z,101122.81
2023-05-21T02:21:29.785Z,101127.13
2023-05-21T02:23:57.669Z,101120.19
2023-05-21T02:26:25.628Z,101123.59
2023-05-21T02:28:55.747Z,101120.13
2023-05-21T02:31:23.824Z,101127.00
2023-05-21T02:33:51.819Z,101116.63
2023-05-21T02:36:19.905Z,101120.97
2023-05-21T02:38:47.831Z,101119.22
2023-05-21T02:41:15.848Z,101117.50
2023-05-21T02:43:44.081Z,101120.13
2023-05-21T02:46:13.473Z,101115.84
2023-05-21T02:48:41.652Z,101121.97
2023-05-21T02:51:09.641Z,101119.41
2023-05-21T02:53:37.601Z,101117.75
2023-05-21T02:56:06.846Z,101120.38
2023-05-21T02:58:34.697Z,101129.09
2023-05-21T03:01:02.607Z,101118.81
2023-05-21T03:03:32.543Z,101124.06
2023-05-21T03:06:00.507Z,101117.19
2023-05-21T03:08:28.551Z,101121.56
2023-05-21T03:10:56.480Z,101123.34
2023-05-21T03:13:24.407Z,101122.53
2023-05-21T03:15:56.305Z,101122.53
2023-05-21T03:18:24.260Z,101116.50
2023-05-21T03:20:53.476Z,101112.25
2023-05-21T03:23:21.383Z,101108.78
2023-05-21T03:25:49.547Z,101110.56
2023-05-21T03:28:17.738Z,101100.25
2023-05-21T03:30:46.821Z,101105.44
2023-05-21T03:33:26.322Z,101106.31
2023-05-21T03:35:56.138Z,101105.44
2023-05-21T03:38:24.048Z,101108.94
2023-05-21T03:40:51.966Z,101102.91
2023-05-21T03:43:19.822Z,101109.88
2023-05-21T03:45:47.799Z,101102.13
2023-05-21T03:48:15.975Z,101103.03
2023-05-21T03:50:43.938Z,101103.09
2023-05-21T03:53:14.028Z,101106.53
2023-05-21T03:55:42.036Z,101105.66
2023-05-21T03:58:10.967Z,101110.81
2023-05-21T04:00:39.160Z,101110.81
2023-05-21T04:03:07.208Z,101107.38
2023-05-21T04:05:35.448Z,101108.22
2023-05-21T04:08:03.505Z,101108.19
2023-05-21T04:10:32.792Z,101114.22
2023-05-21T04:13:00.811Z,101119.34
2023-05-21T04:15:28.832Z,101121.00
2023-05-21T04:17:57.181Z,101112.31
2023-05-21T04:20:25.273Z,101113.97
2023-05-21T04:22:53.345Z,101115.66
2023-05-21T04:25:22.049Z,101108.63
2023-05-21T04:27:51.479Z,101108.44
2023-05-21T04:30:20.259Z,101104.81
2023-05-21T04:32:48.654Z,101097.81
2023-05-21T04:35:17.639Z,101099.41
2023-05-21T04:37:46.121Z,101093.22
2023-05-21T04:40:18.462Z,101090.47
2023-05-21T04:42:48.485Z,101091.09
2023-05-21T04:45:18.055Z,101088.31
2023-05-21T04:47:46.293Z,101093.19
2023-05-21T04:50:14.499Z,101090.47
2023-05-21T04:52:43.029Z,101084.31
2023-05-21T04:55:11.334Z,101086.59
2023-05-21T04:57:39.290Z,101084.59
2023-05-21T05:00:09.156Z,101084.25
2023-05-21T05:02:38.411Z,101085.25
2023-05-21T05:05:07.109Z,101076.88
2023-05-21T05:07:35.025Z,101078.88
2023-05-21T05:10:03.294Z,101077.03
2023-05-21T05:12:31.260Z,101079.69
2023-05-21T05:14:59.200Z,101080.00
2023-05-21T05:17:27.592Z,101076.00
2023-05-21T05:19:56.899Z,101071.09
2023-05-21T05:22:25.307Z,101057.59
2023-05-21T05:24:53.241Z,101066.41
2023-05-21T05:27:21.138Z,101064.81
2023-05-21T05:29:49.307Z,101052.69
2023-05-21T05:32:17.320Z,101056.84
2023-05-21T05:34:47.408Z,101056.16
2023-05-21T05:37:16.687Z,101050.53
2023-05-21T05:39:44.582Z,101045.41
2023-05-21T05:42:12.622Z,101046.06
2023-05-21T05:44:40.901Z,101044.88
2023-05-21T05:47:10.899Z,101042.19
2023-05-21T05:49:38.763Z,101045.28
2023-05-21T05:52:07.433Z,101039.16
2023-05-21T05:54:36.739Z,101048.84
2023-05-21T05:57:05.055Z,101041.78
2023-05-21T05:59:33.913Z,101037.28
2023-05-21T06:02:01.883Z,101034.75
2023-05-21T06:04:30.331Z,101030.94
2023-05-21T06:06:58.654Z,101037.03
2023-05-21T06:09:26.728Z,101037.34
2023-05-21T06:11:55.972Z,101041.84
2023-05-21T06:14:23.869Z,101038.38
2023-05-21T06:16:51.721Z,101033.47
2023-05-21T06:19:20.166Z,101037.16
2023-05-21T06:21:48.582Z,101039.72
2023-05-21T06:24:16.839Z,101043.56
2023-05-21T06:26:44.719Z,101040.69
2023-05-21T06:29:15.516Z,101038.47
2023-05-21T06:31:43.565Z,101036.66
2023-05-21T06:34:11.999Z,101036.69
2023-05-21T06:36:39.975Z,101031.63
2023-05-21T06:39:07.964Z,101036.94
2023-05-21T06:41:36.228Z,101028.03
2023-05-21T06:44:04.235Z,101028.69
2023-05-21T06:46:33.782Z,101029.81
2023-05-21T06:49:02.111Z,101028.59
2023-05-21T06:51:30.038Z,101029.19
2023-05-21T06:53:57.895Z,101025.63
2023-05-21T06:56:26.574Z,101019.81
2023-05-21T06:58:54.665Z,101020.03
2023-05-21T07:01:23.517Z,101022.38
2023-05-21T07:03:53.138Z,101013.63
2023-05-21T07:06:21.099Z,101019.03
2023-05-21T07:08:49.996Z,101014.13
2023-05-21T07:11:17.920Z,101016.66
2023-05-21T07:13:46.221Z,101016.22
2023-05-21T07:16:14.232Z,101011.50
2023-05-21T07:18:42.216Z,101007.69
2023-05-21T07:21:11.753Z,101012.94
2023-05-21T07:23:39.844Z,101012.00
2023-05-21T07:26:07.994Z,101009.13
2023-05-21T07:28:35.980Z,101012.50
2023-05-21T07:31:04.188Z,101012.44
2023-05-21T07:33:32.318Z,101008.41
2023-05-21T07:36:01.720Z,101002.94
2023-05-21T07:38:31.116Z,101012.50
2023-05-21T07:40:59.124Z,101004.88
2023-05-21T07:43:27.083Z,101002.00
2023-05-21T07:45:55.131Z,101003.28
2023-05-21T07:48:23.029Z,101006.19
2023-05-21T07:50:52.756Z,101011.88
2023-05-21T07:53:20.931Z,101000.22
2023-05-21T07:55:50.226Z,100995.97
2023-05-21T07:58:18.906Z,100991.66
2023-05-21T08:00:48.444Z,100987.97
2023-05-21T08:03:17.766Z,100991.16
2023-05-21T08:05:49.757Z,100995.16
2023-05-21T08:08:18.662Z,101000.31
2023-05-21T08:10:47.909Z,101000.97
2023-05-21T08:13:17.958Z,100996.75
2023-05-21T08:15:45.964Z,100988.69
2023-05-21T08:18:13.885Z,101001.63
2023-05-21T08:20:42.643Z,100999.41
2023-05-21T08:23:10.894Z,100994.75
2023-05-21T08:25:39.100Z,100992.09
2023-05-21T08:28:07.244Z,100996.03
2023-05-21T08:30:36.777Z,100991.75
2023-05-21T08:33:04.911Z,100990.16
2023-05-21T08:35:33.011Z,100985.81
2023-05-21T08:38:01.086Z,100985.81
2023-05-21T08:40:29.040Z,100991.34
2023-05-21T08:42:57.102Z,100988.09
2023-05-21T08:45:25.317Z,100986.78
2023-05-21T08:47:58.449Z,100998.31
2023-05-21T08:50:29.199Z,100987.31
2023-05-21T08:52:59.077Z,100991.66
2023-05-21T08:55:27.679Z,101001.00
2023-05-21T08:57:58.880Z,100991.56
2023-05-21T09:00:26.841Z,100988.03
2023-05-21T09:02:56.379Z,100998.94
2023-05-21T09:05:26.147Z,100993.38
2023-05-21T09:08:05.554Z,100991.78
2023-05-21T09:10:37.781Z,101000.69
2023-05-21T09:13:08.025Z,100990.31
2023-05-21T09:15:36.229Z,100994.56
2023-05-21T09:18:05.816Z,100991.22
2023-05-21T09:20:33.958Z,100981.03
2023-05-21T09:23:04.541Z,100981.25
2023-05-21T09:25:33.182Z,100974.34
2023-05-21T09:28:01.216Z,100970.00
2023-05-21T09:30:31.318Z,100978.84
2023-05-21T09:33:01.833Z,100976.81
2023-05-21T09:35:31.641Z,100973.50
2023-05-21T09:37:59.764Z,100962.75
2023-05-21T09:40:27.710Z,100973.81
2023-05-21T09:42:56.744Z,100965.44
2023-05-21T09:45:26.566Z,100957.38
2023-05-21T09:47:56.023Z,100959.47
2023-05-21T09:50:25.230Z,100968.00
2023-05-21T09:52:55.593Z,100960.66
2023-05-21T09:55:24.491Z,100953.28
2023-05-21T09:57:53.042Z,100948.28
2023-05-21T10:00:22.450Z,100952.00
2023-05-21T10:02:51.738Z,100947.22
2023-05-21T10:05:20.214Z,100943.66
2023-05-21T10:07:51.512Z,100947.69
2023-05-21T10:10:22.827Z,100942.25
2023-05-21T10:13:01.731Z,100940.75
2023-05-21T10:15:33.039Z,100941.72
2023-05-21T10:18:02.122Z,100940.00
2023-05-21T10:20:30.721Z,100928.03
2023-05-21T10:23:00.080Z,100930.75
2023-05-21T10:25:32.139Z,100927.50
2023-05-21T10:28:00.208Z,100931.84
2023-05-21T10:30:28.946Z,100925.41
2023-05-21T10:32:58.154Z,100920.69
2023-05-21T10:35:26.318Z,100920.25
2023-05-21T10:37:55.559Z,100914.97
2023-05-21T10:40:23.518Z,100914.50
2023-05-21T10:43:20.831Z,100914.34
2023-05-21T10:46:03.128Z,100916.84
2023-05-21T10:48:46.764Z,100911.31
2023-05-21T10:51:23.766Z,100918.63
2023-05-21T10:54:32.998Z,100921.19
2023-05-21T10:57:12.745Z,100924.53
2023-05-21T10:59:44.880Z,100918.03
2023-05-21T11:02:15.221Z,100904.38
2023-05-21T11:04:49.000Z,100906.91
2023-05-21T11:07:24.882Z,100906.19
2023-05-21T11:09:52.841Z,100909.53
2023-05-21T11:12:23.390Z,100902.03
2023-05-21T11:14:59.194Z,100899.09
2023-05-21T11:17:42.160Z,100890.59
2023-05-21T11:20:13.576Z,100891.09
2023-05-21T11:22:41.490Z,100899.13
2023-05-21T11:25:10.042Z,100897.25
2023-05-21T11:27:39.471Z,100892.34
2023-05-21T11:30:11.163Z,100882.50
2023-05-21T11:32:40.094Z,100878.84
2023-05-21T11:35:09.117Z,100884.31
2023-05-21T11:37:40.716Z,100892.56
2023-05-21T11:40:28.436Z,100887.09
2023-05-21T11:42:57.618Z,100890.50
2023-05-21T11:45:32.064Z,100888.72
2023-05-21T11:48:01.347Z,100896.69
2023-05-21T11:50:33.763Z,100890.19
2023-05-21T11:53:01.997Z,100887.75
2023-05-21T11:55:29.841Z,100886.53
2023-05-21T11:57:59.569Z,100887.84
2023-05-21T12:00:28.862Z,100881.97
2023-05-21T12:02:57.265Z,100889.31
2023-05-21T12:05:27.179Z,100893.34
2023-05-21T12:07:56.751Z,100885.06
2023-05-21T12:10:24.906Z,100887.00
2023-05-21T12:12:56.893Z,100889.38
2023-05-21T12:15:27.252Z,100885.03
2023-05-21T12:17:57.910Z,100884.09
2023-05-21T12:20:28.586Z,100877.28
2023-05-21T12:22:58.980Z,100881.44
2023-05-21T12:25:27.698Z,100876.16
2023-05-21T12:27:58.104Z,100884.47
2023-05-21T12:30:27.174Z,100881.47
2023-05-21T12:32:55.107Z,100873.34
2023-05-21T12:35:24.949Z,100867.75
2023-05-21T12:37:53.520Z,100876.16
2023-05-21T12:40:22.534Z,100870.69
2023-05-21T12:42:51.015Z,100869.91
2023-05-21T12:45:21.127Z,100865.97
2023-05-21T12:47:50.798Z,100861.81
2023-05-21T12:50:22.229Z,100863.44
2023-05-21T12:52:55.801Z,100865.13
2023-05-21T12:55:24.815Z,100869.06
2023-05-21T12:58:03.669Z,100867.19
2023-05-21T13:00:33.282Z,100862.75
2023-05-21T13:03:02.200Z,100852.19
2023-05-21T13:05:30.180Z,100855.19
2023-05-21T13:07:59.556Z,100855.09
2023-05-21T13:10:27.440Z,100851.34
2023-05-21T13:12:55.329Z,100852.34
2023-05-21T13:15:23.191Z,100851.88
2023-05-21T13:17:52.545Z,100857.16
2023-05-21T13:20:23.839Z,100859.31
2023-05-21T13:22:52.541Z,100865.03
2023-05-21T13:25:24.934Z,100854.81
2023-05-21T13:27:54.309Z,100849.38
2023-05-21T13:30:23.189Z,100846.97
2023-05-21T13:32:52.341Z,100852.47
2023-05-21T13:35:20.606Z,100852.47
2023-05-21T13:37:48.481Z,100847.38
2023-05-21T13:40:17.232Z,100849.81
2023-05-21T13:42:48.003Z,100852.63
2023-05-21T13:45:17.274Z,100839.06
2023-05-21T13:47:46.053Z,100846.53
2023-05-21T13:50:14.138Z,100837.50
2023-05-21T13:52:42.358Z,100846.59
2023-05-21T13:55:11.801Z,100833.84
2023-05-21T13:57:40.768Z,100838.34
2023-05-21T14:00:14.185Z,100837.78
2023-05-21T14:02:43.061Z,100842.38
2023-05-21T14:05:12.670Z,100843.72
2023-05-21T14:07:42.003Z,100837.16
2023-05-21T14:10:10.576Z,100833.09
2023-05-21T14:12:38.873Z,100828.56
2023-05-21T14:15:07.889Z,100839.31
2023-05-21T14:17:37.467Z,100832.84
2023-05-21T14:20:06.390Z,100834.94
2023-05-21T14:22:34.240Z,100833.69
2023-05-21T14:25:03.343Z,100830.59
2023-05-21T14:27:31.256Z,100830.94
2023-05-21T14:29:59.084Z,100827.38
2023-05-21T14:32:27.223Z,100829.16
2023-05-21T14:34:56.871Z,100832.53
2023-05-21T14:37:24.831Z,100835.25
2023-05-21T14:39:52.867Z,100828.38
2023-05-21T14:42:20.946Z,100820.75
2023-05-21T14:44:49.253Z,100822.75
2023-05-21T14:47:17.310Z,100812.38
2023-05-21T14:49:45.270Z,100825.53
2023-05-21T14:52:14.654Z,100806.44
2023-05-21T14:54:42.576Z,100804.81
2023-05-21T14:57:10.549Z,100806.84
2023-05-21T14:59:38.479Z,100805.22
2023-05-21T15:02:06.979Z,100801.22
2023-05-21T15:04:34.940Z,100809.66
2023-05-21T15:07:02.902Z,100812.44
2023-05-21T15:09:32.212Z,100808.13
2023-05-21T15:12:00.321Z,100807.38
2023-05-21T15:14:28.321Z,100797.16
2023-05-21T15:16:56.232Z,100801.56
2023-05-21T15:19:24.250Z,100800.78
2023-05-21T15:21:52.604Z,100801.03
2023-05-21T15:24:20.568Z,100799.41
2023-05-21T15:26:49.936Z,100792.72
2023-05-21T15:29:17.832Z,100797.56
2023-05-21T15:31:45.830Z,100795.59
2023-05-21T15:34:13.967Z,100804.28
2023-05-21T15:36:42.144Z,100799.28
2023-05-21T15:39:10.105Z,100800.66
2023-05-21T15:41:38.617Z,100797.22
2023-05-21T15:44:07.890Z,100806.53
2023-05-21T15:46:35.810Z,100796.06
2023-05-21T15:49:03.757Z,100808.53
2023-05-21T15:51:31.766Z,100792.34
2023-05-21T15:53:59.701Z,100798.91
2023-05-21T15:56:27.830Z,100794.22
2023-05-21T15:58:58.286Z,100800.22
2023-05-21T16:01:28.597Z,100796.84
2023-05-21T16:03:56.766Z,100790.75
2023-05-21T16:06:24.823Z,100792.44
2023-05-21T16:08:52.807Z,100794.06
2023-05-21T16:11:21.561Z,100800.94
2023-05-21T16:13:49.557Z,100796.69
2023-05-21T16:16:17.567Z,100791.44
2023-05-21T16:18:46.968Z,100791.44
2023-05-21T16:21:16.007Z,100785.25
2023-05-21T16:23:43.959Z,100787.94
2023-05-21T16:26:12.147Z,100787.88
2023-05-21T16:28:40.154Z,100793.13
2023-05-21T16:31:08.669Z,100793.28
2023-05-21T16:33:36.690Z,100785.50
2023-05-21T16:36:06.195Z,100791.59
2023-05-21T16:38:34.102Z,100787.09
2023-05-21T16:41:02.002Z,100795.13
2023-05-21T16:43:29.895Z,100785.94
2023-05-21T16:45:57.874Z,100784.47
2023-05-21T16:48:25.817Z,100782.69
2023-05-21T16:50:53.823Z,100794.31
2023-05-21T16:53:23.423Z,100785.84
2023-05-21T16:55:51.737Z,100787.06
2023-05-21T16:58:19.915Z,100784.56
2023-05-21T17:00:47.916Z,100787.28
2023-05-21T17:03:16.176Z,100781.28
2023-05-21T17:05:44.393Z,100795.50
2023-05-21T17:08:12.366Z,100790.38
2023-05-21T17:10:41.686Z,100793.16
2023-05-21T17:13:21.443Z,100792.44
2023-05-21T17:15:51.166Z,100795.28
2023-05-21T17:18:19.364Z,100793.72
2023-05-21T17:20:47.548Z,100791.38
2023-05-21T17:23:15.479Z,100792.44
2023-05-21T17:25:44.942Z,100796.13
2023-05-21T17:28:12.843Z,100798.06
2023-05-21T17:30:40.930Z,100798.25
2023-05-21T17:33:10.524Z,100792.38
2023-05-21T17:35:39.000Z,100794.13
2023-05-21T17:38:07.408Z,100795.13
2023-05-21T17:40:35.649Z,100793.34
2023-05-21T17:43:07.292Z,100791.66
2023-05-21T17:45:35.707Z,100787.47
2023-05-21T17:48:04.306Z,100785.69
2023-05-21T17:50:32.258Z,100777.97
2023-05-21T17:53:00.457Z,100788.53
2023-05-21T17:55:28.316Z,100782.56
2023-05-21T17:57:56.269Z,100773.19
2023-05-21T18:00:25.867Z,100781.28
2023-05-21T18:02:53.793Z,100773.53
2023-05-21T18:05:22.890Z,100772.75
2023-05-21T18:07:51.345Z,100775.50
2023-05-21T18:10:19.369Z,100779.09
2023-05-21T18:12:47.355Z,100775.84
2023-05-21T18:15:16.066Z,100776.94
2023-05-21T18:17:45.548Z,100775.25
2023-05-21T18:20:14.997Z,100776.19
2023-05-21T18:22:43.086Z,100771.13
2023-05-21T18:25:11.585Z,100776.44
2023-05-21T18:27:40.239Z,100787.00
2023-05-21T18:30:09.416Z,100785.28
2023-05-21T18:32:39.987Z,100785.22
2023-05-21T18:35:12.534Z,100787.00
2023-05-21T18:37:44.525Z,100794.91
2023-05-21T18:40:14.163Z,100790.59
2023-05-21T18:42:42.278Z,100798.44
2023-05-21T18:45:11.732Z,100784.72
2023-05-21T18:47:40.590Z,100791.66
2023-05-21T18:50:12.175Z,100793.47
2023-05-21T18:52:40.171Z,100800.56
2023-05-21T18:55:08.907Z,100802.38
2023-05-21T18:57:38.156Z,100798.31
2023-05-21T19:00:09.591Z,100790.72
2023-05-21T19:02:38.272Z,100800.66
2023-05-21T19:05:07.407Z,100806.16
2023-05-21T19:07:37.352Z,100808.91
2023-05-21T19:10:06.237Z,100805.56
2023-05-21T19:12:36.165Z,100810.84
2023-05-21T19:15:04.249Z,100814.25
2023-05-21T19:17:33.558Z,100811.56
2023-05-21T19:20:01.659Z,100804.63
2023-05-21T19:22:30.039Z,100802.22
2023-05-21T19:25:00.778Z,100811.00
2023-05-21T19:27:29.577Z,100808.50
2023-05-21T19:29:57.682Z,100809.41
2023-05-21T19:32:25.710Z,100816.44
2023-05-21T19:34:53.733Z,100809.50
2023-05-21T19:37:21.731Z,100811.31
2023-05-21T19:39:50.475Z,100808.03
2023-05-21T19:42:21.622Z,100808.94
2023-05-21T19:44:49.822Z,100813.31
2023-05-21T19:47:17.791Z,100816.78
2023-05-21T19:49:45.713Z,100814.16
2023-05-21T19:52:13.813Z,100813.38
2023-05-21T19:54:41.723Z,100815.09
2023-05-21T19:57:12.379Z,100808.28
2023-05-21T19:59:41.988Z,100805.84
2023-05-21T20:02:13.277Z,100805.13
2023-05-21T20:04:41.548Z,100804.50
2023-05-21T20:07:09.489Z,100798.59
2023-05-21T20:09:37.502Z,100805.72
2023-05-21T20:12:06.282Z,100801.63
2023-05-21T20:14:34.568Z,100800.09
2023-05-21T20:17:05.641Z,100805.59
2023-05-21T20:19:33.817Z,100803.13
2023-05-21T20:22:01.861Z,100805.91
2023-05-21T20:24:29.809Z,100808.63
2023-05-21T20:26:57.814Z,100806.13
2023-05-21T20:29:25.862Z,100804.53
2023-05-21T20:31:53.868Z,100809.78
2023-05-21T20:34:24.718Z,100815.06
2023-05-21T20:36:52.847Z,100803.81
2023-05-21T20:39:22.145Z,100813.41
2023-05-21T20:41:50.275Z,100809.19
2023-05-21T20:44:18.839Z,100811.91
2023-05-21T20:46:47.833Z,100812.94
2023-05-21T20:49:17.759Z,100822.47
2023-05-21T20:51:47.527Z,100817.53
2023-05-21T20:54:15.530Z,100814.34
2023-05-21T20:56:45.054Z,100819.75
2023-05-21T20:59:13.126Z,100819.06
2023-05-21T21:01:41.869Z,100816.69
2023-05-21T21:04:10.059Z,100815.19
2023-05-21T21:06:38.714Z,100813.75
2023-05-21T21:09:08.585Z,100814.88
2023-05-21T21:11:36.508Z,100808.97
2023-05-21T21:14:04.569Z,100811.75
2023-05-21T21:16:32.603Z,100806.56
2023-05-21T21:19:00.516Z,100803.19
2023-05-21T21:21:29.237Z,100801.53
2023-05-21T21:23:57.392Z,100797.38
2023-05-21T21:26:27.236Z,100794.13
2023-05-21T21:28:56.364Z,100797.78
2023-05-21T21:31:25.059Z,100798.88
2023-05-21T21:33:53.311Z,100798.16
2023-05-21T21:36:21.439Z,100796.59
2023-05-21T21:38:51.830Z,100795.84
2023-05-21T21:41:22.049Z,100790.81
2023-05-21T21:43:53.764Z,100791.00
2023-05-21T21:46:21.971Z,100788.47
2023-05-21T21:48:50.253Z,100792.81
2023-05-21T21:51:19.106Z,100790.31
2023-05-21T21:53:48.329Z,100787.88
2023-05-21T21:56:16.425Z,100790.56
2023-05-21T21:58:44.705Z,100792.41
2023-05-21T22:01:14.052Z,100798.53
2023-05-21T22:03:42.219Z,100792.50
2023-05-21T22:06:10.301Z,100799.38
2023-05-21T22:08:38.256Z,100798.53
2023-05-21T22:11:06.240Z,100804.63
2023-05-21T22:13:34.409Z,100797.78
2023-05-21T22:16:03.326Z,100784.97
2023-05-21T22:18:40.989Z,100798.13
2023-05-21T22:21:10.697Z,100798.31
2023-05-21T22:23:39.505Z,100794.22
2023-05-21T22:26:07.725Z,100794.28
2023-05-21T22:28:35.797Z,100792.59
2023-05-21T22:31:03.917Z,100796.97
2023-05-21T22:33:33.547Z,100805.69
2023-05-21T22:36:01.623Z,100805.78
2023-05-21T22:38:29.547Z,100798.00
2023-05-21T22:40:57.683Z,100797.09
2023-05-21T22:43:26.746Z,100797.13
2023-05-21T22:45:54.664Z,100799.72
2023-05-21T22:48:23.386Z,100794.50
2023-05-21T22:50:53.612Z,100800.63
2023-05-21T22:53:21.886Z,100803.28
2023-05-21T22:55:50.209Z,100800.81
2023-05-21T22:58:18.603Z,100799.94
2023-05-21T23:00:46.822Z,100801.75
2023-05-21T23:03:14.844Z,100791.41
2023-05-21T23:05:43.176Z,100799.22
2023-05-21T23:08:12.615Z,100794.22
2023-05-21T23:10:40.990Z,100792.63
2023-05-21T23:13:09.432Z,100794.41
2023-05-21T23:15:39.129Z,100792.91
2023-05-21T23:18:08.760Z,100785.34
2023-05-21T23:20:39.554Z,100782.94
2023-05-21T23:23:07.868Z,100792.59
2023-05-21T23:25:38.379Z,100791.81
2023-05-21T23:28:06.688Z,100794.47
2023-05-21T23:30:34.576Z,100786.72
2023-05-21T23:33:02.697Z,100787.63
2023-05-21T23:35:30.848Z,100789.34
2023-05-21T23:37:58.766Z,100785.84
2023-05-21T23:40:26.757Z,100791.91
2023-05-21T23:42:56.365Z,100780.72
2023-05-21T23:45:24.310Z,100792.06
2023-05-21T23:47:53.451Z,100793.97
2023-05-21T23:50:21.450Z,100786.22
2023-05-21T23:52:49.395Z,100782.84
2023-05-21T23:55:17.642Z,100786.31
2023-05-21T23:57:46.118Z,100780.22
